createdAt,value
2022-10-11T00:00:01.263Z,20.20
2022-10-11T00:01:01.055Z,18.53
2022-10-11T00:02:00.950Z,15.80
2022-10-11T00:03:02.244Z,14.47
2022-10-11T00:04:01.265Z,14.77
2022-10-11T00:05:01.224Z,14.43
2022-10-11T00:06:01.425Z,14.73
2022-10-11T00:07:01.398Z,13.93
2022-10-11T00:08:01.396Z,13.07
2022-10-11T00:09:00.938Z,13.57
2022-10-11T00:10:00.936Z,13.37
2022-10-11T00:11:04.088Z,13.13
2022-10-11T00:12:01.486Z,13.03
2022-10-11T00:13:01.646Z,13.87
2022-10-11T00:14:01.235Z,13.43
2022-10-11T00:15:01.373Z,12.20
2022-10-11T00:16:07.129Z,11.80
2022-10-11T00:17:01.403Z,13.87
2022-10-11T00:18:05.245Z,12.97
2022-10-11T00:19:00.965Z,13.27
2022-10-11T00:20:01.007Z,11.23
2022-10-11T00:21:02.830Z,12.17
2022-10-11T00:22:01.239Z,13.40
2022-10-11T00:23:00.928Z,13.87
2022-10-11T00:24:00.979Z,13.13
2022-10-11T00:25:00.982Z,13.67
2022-10-11T00:26:04.058Z,13.87
2022-10-11T00:27:00.951Z,13.23
2022-10-11T00:28:01.439Z,14.53
2022-10-11T00:29:01.276Z,14.80
2022-10-11T00:30:01.316Z,14.73
2022-10-11T00:31:01.924Z,13.30
2022-10-11T00:32:00.933Z,13.33
2022-10-11T00:33:01.259Z,14.50
2022-10-11T00:34:00.959Z,12.60
2022-10-11T00:35:01.938Z,13.83
2022-10-11T00:36:02.075Z,14.10
2022-10-11T00:37:00.998Z,13.33
2022-10-11T00:38:00.958Z,13.10
2022-10-11T00:39:01.834Z,14.10
2022-10-11T00:40:01.256Z,13.57
2022-10-11T00:41:01.254Z,13.50
2022-10-11T00:42:01.257Z,13.80
2022-10-11T00:43:01.633Z,12.70
2022-10-11T00:44:11.006Z,11.93
2022-10-11T00:45:20.407Z,12.23
2022-10-11T00:46:05.922Z,13.60
2022-10-11T00:47:05.396Z,11.97
2022-10-11T00:48:05.679Z,12.83
2022-10-11T00:49:06.541Z,11.23
2022-10-11T00:50:01.475Z,11.93
2022-10-11T00:51:05.765Z,12.73
2022-10-11T00:52:05.054Z,13.13
2022-10-11T00:53:06.083Z,13.03
2022-10-11T00:54:02.277Z,13.07
2022-10-11T00:55:05.399Z,12.43
2022-10-11T00:56:06.252Z,12.63
2022-10-11T00:57:06.253Z,12.03
2022-10-11T00:58:01.311Z,11.73
2022-10-11T00:59:04.021Z,13.33
2022-10-11T01:00:05.469Z,13.60
2022-10-11T01:01:02.162Z,11.50
2022-10-11T01:02:01.973Z,12.33
2022-10-11T01:03:03.748Z,13.43
2022-10-11T01:04:01.689Z,12.70
2022-10-11T01:05:27.608Z,11.30
2022-10-11T01:06:01.648Z,11.40
2022-10-11T01:07:01.708Z,12.37
2022-10-11T01:08:02.571Z,11.67
2022-10-11T01:09:01.392Z,11.47
2022-10-11T01:10:01.228Z,12.60
2022-10-11T01:11:01.544Z,11.70
2022-10-11T01:12:04.488Z,10.57
2022-10-11T01:13:09.006Z,11.43
2022-10-11T01:14:20.424Z,11.50
2022-10-11T01:15:13.232Z,13.37
2022-10-11T01:16:10.728Z,11.93
2022-10-11T01:17:09.648Z,12.23
2022-10-11T01:18:07.311Z,12.50
2022-10-11T01:19:14.545Z,11.70
2022-10-11T01:20:20.399Z,13.93
2022-10-11T01:21:09.372Z,10.67
2022-10-11T01:22:13.905Z,11.23
2022-10-11T01:23:20.414Z,11.40
2022-10-11T01:24:19.301Z,11.00
2022-10-11T01:25:17.518Z,10.90
2022-10-11T01:26:20.427Z,10.00
2022-10-11T01:27:20.431Z,11.47
2022-10-11T01:28:19.023Z,11.17
2022-10-11T01:29:10.593Z,11.50
2022-10-11T01:30:14.682Z,10.77
2022-10-11T01:31:07.264Z,11.87
2022-10-11T01:32:09.178Z,11.60
2022-10-11T01:33:12.373Z,10.80
2022-10-11T01:34:05.670Z,11.00
2022-10-11T01:35:09.793Z,11.53
2022-10-11T01:36:11.214Z,11.03
2022-10-11T01:37:07.727Z,10.90
2022-10-11T01:38:09.626Z,9.47
2022-10-11T01:39:05.807Z,9.97
2022-10-11T01:40:06.601Z,9.43
2022-10-11T01:41:07.325Z,9.90
2022-10-11T01:42:05.094Z,11.07
2022-10-11T01:43:03.564Z,10.30
2022-10-11T01:44:02.853Z,9.80
2022-10-11T01:45:01.747Z,8.87
2022-10-11T01:46:03.654Z,10.63
2022-10-11T01:47:00.958Z,10.27
2022-10-11T01:48:03.383Z,10.67
2022-10-11T01:49:02.705Z,9.43
2022-10-11T01:50:01.793Z,11.07
2022-10-11T01:51:02.732Z,10.23
2022-10-11T01:52:05.049Z,10.33
2022-10-11T01:53:14.946Z,10.33
2022-10-11T01:54:13.802Z,9.73
2022-10-11T01:55:18.933Z,10.27
2022-10-11T01:56:09.141Z,10.33
2022-10-11T01:57:20.434Z,8.30
2022-10-11T01:58:12.958Z,10.50
2022-10-11T01:59:17.625Z,10.93
2022-10-11T02:00:11.777Z,9.63
2022-10-11T02:01:12.250Z,9.57
2022-10-11T02:02:14.982Z,11.03
2022-10-11T02:03:12.442Z,10.23
2022-10-11T02:04:09.912Z,11.77
2022-10-11T02:05:08.438Z,10.07
2022-10-11T02:06:08.081Z,10.07
2022-10-11T02:07:09.085Z,10.80
2022-10-11T02:08:08.208Z,10.77
2022-10-11T02:09:11.116Z,10.90
2022-10-11T02:10:08.237Z,10.63
2022-10-11T02:11:06.711Z,10.43
2022-10-11T02:12:06.375Z,10.00
2022-10-11T02:13:07.059Z,11.60
2022-10-11T02:14:08.946Z,11.00
2022-10-11T02:15:05.270Z,9.87
2022-10-11T02:16:08.484Z,11.93
2022-10-11T02:17:06.790Z,11.27
2022-10-11T02:18:07.653Z,9.90
2022-10-11T02:19:05.270Z,11.57
2022-10-11T02:20:06.859Z,10.23
2022-10-11T02:21:06.023Z,11.57
2022-10-11T02:22:09.143Z,11.07
2022-10-11T02:23:07.431Z,10.47
2022-10-11T02:24:06.335Z,12.97
2022-10-11T02:25:06.293Z,11.80
2022-10-11T02:26:05.425Z,11.57
2022-10-11T02:27:04.451Z,11.93
2022-10-11T02:28:07.477Z,9.87
2022-10-11T02:29:06.476Z,11.93
2022-10-11T02:30:04.166Z,10.87
2022-10-11T02:31:04.297Z,11.23
2022-10-11T02:32:01.731Z,12.47
2022-10-11T02:33:04.966Z,12.07
2022-10-11T02:34:10.667Z,12.43
2022-10-11T02:35:02.860Z,12.60
2022-10-11T02:36:10.545Z,12.87
2022-10-11T02:37:05.287Z,12.37
2022-10-11T02:38:09.100Z,12.53
2022-10-11T02:39:07.266Z,12.10
2022-10-11T02:40:08.926Z,11.07
2022-10-11T02:41:08.379Z,12.47
2022-10-11T02:42:05.844Z,11.47
2022-10-11T02:43:04.828Z,12.03
2022-10-11T02:44:07.125Z,11.00
2022-10-11T02:45:07.162Z,11.00
2022-10-11T02:46:03.659Z,10.57
2022-10-11T02:47:02.935Z,11.33
2022-10-11T02:48:02.141Z,10.77
2022-10-11T02:49:01.958Z,12.43
2022-10-11T02:50:01.707Z,11.47
2022-10-11T02:51:02.351Z,12.27
2022-10-11T02:52:03.682Z,11.87
2022-10-11T02:53:01.481Z,11.60
2022-10-11T02:54:00.967Z,10.10
2022-10-11T02:55:00.982Z,11.17
2022-10-11T02:56:00.999Z,11.77
2022-10-11T02:57:00.972Z,11.60
2022-10-11T02:58:01.353Z,12.40
2022-10-11T02:59:01.239Z,12.03
2022-10-11T03:00:00.939Z,11.50
2022-10-11T03:01:01.378Z,9.90
2022-10-11T03:02:01.452Z,10.97
2022-10-11T03:03:00.918Z,12.70
2022-10-11T03:04:00.966Z,11.27
2022-10-11T03:05:01.386Z,13.17
2022-10-11T03:06:03.132Z,12.17
2022-10-11T03:07:00.927Z,12.40
2022-10-11T03:08:01.240Z,12.07
2022-10-11T03:09:00.960Z,12.00
2022-10-11T03:10:01.259Z,11.43
2022-10-11T03:11:01.446Z,11.80
2022-10-11T03:12:00.935Z,12.90
2022-10-11T03:13:01.862Z,10.30
2022-10-11T03:14:00.915Z,12.47
2022-10-11T03:15:00.966Z,11.40
2022-10-11T03:16:03.605Z,11.63
2022-10-11T03:17:23.828Z,11.53
2022-10-11T03:18:00.965Z,10.80
2022-10-11T03:19:01.389Z,12.10
2022-10-11T03:20:00.936Z,12.60
2022-10-11T03:21:01.263Z,11.30
2022-10-11T03:22:01.270Z,12.10
2022-10-11T03:23:00.951Z,11.37
2022-10-11T03:24:01.499Z,10.80
2022-10-11T03:25:04.310Z,12.00
2022-10-11T03:26:01.318Z,11.43
2022-10-11T03:27:01.218Z,12.43
2022-10-11T03:28:01.406Z,11.47
2022-10-11T03:29:00.943Z,10.97
2022-10-11T03:30:01.283Z,11.20
2022-10-11T03:31:01.339Z,10.40
2022-10-11T03:32:00.977Z,9.70
2022-10-11T03:33:01.264Z,11.10
2022-10-11T03:34:01.316Z,9.03
2022-10-11T03:35:02.248Z,12.03
2022-10-11T03:36:01.025Z,10.53
2022-10-11T03:37:00.931Z,11.70
2022-10-11T03:38:01.239Z,11.00
2022-10-11T03:39:01.306Z,10.23
2022-10-11T03:40:01.260Z,10.10
2022-10-11T03:41:01.301Z,11.23
2022-10-11T03:42:00.932Z,12.10
2022-10-11T03:43:00.959Z,11.13
2022-10-11T03:44:01.229Z,10.50
2022-10-11T03:45:01.606Z,10.80
2022-10-11T03:46:02.029Z,9.73
2022-10-11T03:47:01.242Z,10.53
2022-10-11T03:48:01.587Z,9.73
2022-10-11T03:49:01.291Z,10.00
2022-10-11T03:50:01.290Z,11.17
2022-10-11T03:51:01.243Z,10.67
2022-10-11T03:52:01.237Z,10.70
2022-10-11T03:53:01.290Z,9.90
2022-10-11T03:54:00.938Z,9.90
2022-10-11T03:55:01.063Z,10.47
2022-10-11T03:56:05.919Z,9.43
2022-10-11T03:57:01.331Z,10.97
2022-10-11T03:58:00.942Z,9.90
2022-10-11T03:59:01.284Z,9.60
2022-10-11T04:00:01.286Z,10.53
2022-10-11T04:01:01.236Z,10.17
2022-10-11T04:02:01.071Z,9.70
2022-10-11T04:03:01.363Z,11.70
2022-10-11T04:04:01.120Z,10.23
2022-10-11T04:05:01.590Z,11.40
2022-10-11T04:06:01.659Z,10.13
2022-10-11T04:07:01.324Z,11.13
2022-10-11T04:08:01.461Z,11.23
2022-10-11T04:09:01.567Z,10.30
2022-10-11T04:10:01.256Z,10.70
2022-10-11T04:11:00.952Z,11.57
2022-10-11T04:12:00.957Z,10.53
2022-10-11T04:13:01.237Z,11.23
2022-10-11T04:14:01.236Z,8.90
2022-10-11T04:15:01.234Z,11.87
2022-10-11T04:16:01.154Z,10.90
2022-10-11T04:17:01.228Z,10.80
2022-10-11T04:18:01.289Z,11.20
2022-10-11T04:19:01.629Z,10.50
2022-10-11T04:20:01.251Z,10.37
2022-10-11T04:21:00.951Z,10.40
2022-10-11T04:22:01.258Z,10.67
2022-10-11T04:23:01.283Z,11.50
2022-10-11T04:24:00.983Z,10.23
2022-10-11T04:25:01.251Z,10.87
2022-10-11T04:26:04.566Z,11.10
2022-10-11T04:27:01.246Z,10.93
2022-10-11T04:28:01.229Z,11.07
2022-10-11T04:29:01.245Z,10.47
2022-10-11T04:30:01.623Z,10.90
2022-10-11T04:31:01.238Z,11.37
2022-10-11T04:32:01.310Z,11.17
2022-10-11T04:33:01.255Z,9.73
2022-10-11T04:34:00.973Z,10.20
2022-10-11T04:35:01.257Z,11.27
2022-10-11T04:36:01.622Z,10.60
2022-10-11T04:37:00.953Z,11.23
2022-10-11T04:38:00.958Z,9.77
2022-10-11T04:39:01.366Z,10.00
2022-10-11T04:40:01.322Z,10.90
2022-10-11T04:41:06.853Z,11.17
2022-10-11T04:42:00.952Z,10.37
2022-10-11T04:43:01.022Z,10.60
2022-10-11T04:44:01.806Z,11.03
2022-10-11T04:45:01.265Z,10.87
2022-10-11T04:46:01.426Z,10.53
2022-10-11T04:47:01.000Z,9.87
2022-10-11T04:48:00.966Z,10.00
2022-10-11T04:49:01.273Z,11.70
2022-10-11T04:50:01.230Z,10.53
2022-10-11T04:51:01.296Z,11.07
2022-10-11T04:52:01.206Z,11.87
2022-10-11T04:53:01.445Z,10.63
2022-10-11T04:54:01.322Z,10.07
2022-10-11T04:55:01.258Z,10.47
2022-10-11T04:56:04.610Z,10.67
2022-10-11T04:57:00.949Z,10.80
2022-10-11T04:58:01.247Z,10.17
2022-10-11T04:59:01.416Z,10.20
2022-10-11T05:00:01.002Z,9.47
2022-10-11T05:01:01.252Z,9.73
2022-10-11T05:02:01.016Z,10.43
2022-10-11T05:03:01.170Z,11.73
2022-10-11T05:04:00.971Z,11.93
2022-10-11T05:05:01.308Z,10.03
2022-10-11T05:06:05.481Z,10.37
2022-10-11T05:07:00.943Z,10.93
2022-10-11T05:08:00.940Z,10.47
2022-10-11T05:09:00.939Z,11.07
2022-10-11T05:10:01.288Z,10.43
2022-10-11T05:11:03.925Z,10.43
2022-10-11T05:12:00.955Z,10.17
2022-10-11T05:13:01.247Z,12.30
2022-10-11T05:14:01.795Z,11.60
2022-10-11T05:15:01.571Z,11.70
2022-10-11T05:16:04.033Z,10.97
2022-10-11T05:17:00.987Z,10.90
2022-10-11T05:18:00.959Z,10.33
2022-10-11T05:19:01.259Z,9.90
2022-10-11T05:20:01.285Z,10.60
2022-10-11T05:21:03.222Z,11.00
2022-10-11T05:22:00.942Z,10.40
2022-10-11T05:23:00.951Z,12.23
2022-10-11T05:24:00.935Z,12.23
2022-10-11T05:25:01.298Z,11.60
2022-10-11T05:26:02.316Z,11.90
2022-10-11T05:27:03.551Z,11.83
2022-10-11T05:28:00.975Z,11.23
2022-10-11T05:29:01.040Z,11.27
2022-10-11T05:30:00.934Z,10.70
2022-10-11T05:31:01.225Z,11.07
2022-10-11T05:32:01.228Z,11.37
2022-10-11T05:33:00.934Z,10.63
2022-10-11T05:34:01.222Z,10.37
2022-10-11T05:35:00.939Z,10.07
2022-10-11T05:36:01.741Z,11.20
2022-10-11T05:37:00.940Z,10.90
2022-10-11T05:38:01.270Z,11.40
2022-10-11T05:39:01.318Z,10.50
2022-10-11T05:40:01.254Z,10.73
2022-10-11T05:41:03.072Z,11.97
2022-10-11T05:42:00.916Z,8.90
2022-10-11T05:43:00.926Z,9.83
2022-10-11T05:44:01.231Z,11.87
2022-10-11T05:45:00.930Z,11.73
2022-10-11T05:46:01.489Z,10.63
2022-10-11T05:47:01.612Z,11.40
2022-10-11T05:48:01.246Z,10.87
2022-10-11T05:49:00.941Z,11.20
2022-10-11T05:50:00.952Z,11.37
2022-10-11T05:51:01.246Z,11.83
2022-10-11T05:52:00.960Z,10.93
2022-10-11T05:53:01.772Z,12.53
2022-10-11T05:54:00.940Z,10.30
2022-10-11T05:55:01.328Z,11.40
2022-10-11T05:56:01.398Z,11.93
2022-10-11T05:57:00.986Z,11.23
2022-10-11T05:58:01.148Z,12.13
2022-10-11T05:59:02.533Z,11.20
2022-10-11T06:00:01.383Z,10.93
2022-10-11T06:01:00.967Z,9.93
2022-10-11T06:02:00.965Z,11.30
2022-10-11T06:03:00.936Z,11.93
2022-10-11T06:04:01.255Z,11.20
2022-10-11T06:05:01.268Z,11.37
2022-10-11T06:06:01.406Z,10.83
2022-10-11T06:07:00.954Z,10.43
2022-10-11T06:08:01.528Z,10.77
2022-10-11T06:09:01.334Z,9.70
2022-10-11T06:10:01.218Z,10.37
2022-10-11T06:11:12.053Z,11.27
2022-10-11T06:12:01.344Z,11.57
2022-10-11T06:13:01.607Z,11.03
2022-10-11T06:14:00.971Z,12.80
2022-10-11T06:15:01.190Z,11.10
2022-10-11T06:16:03.247Z,11.67
2022-10-11T06:17:01.243Z,10.00
2022-10-11T06:18:01.244Z,9.27
2022-10-11T06:19:00.941Z,12.00
2022-10-11T06:20:01.165Z,12.90
2022-10-11T06:21:01.434Z,11.53
2022-10-11T06:22:01.263Z,10.70
2022-10-11T06:23:01.363Z,10.90
2022-10-11T06:24:01.718Z,11.03
2022-10-11T06:25:01.416Z,10.70
2022-10-11T06:26:03.828Z,10.23
2022-10-11T06:27:01.245Z,10.60
2022-10-11T06:28:00.970Z,11.80
2022-10-11T06:29:01.068Z,10.73
2022-10-11T06:30:01.009Z,10.90
2022-10-11T06:31:03.957Z,11.77
2022-10-11T06:32:01.382Z,11.97
2022-10-11T06:33:04.651Z,9.73
2022-10-11T06:34:01.292Z,10.43
2022-10-11T06:35:01.280Z,12.57
2022-10-11T06:36:03.882Z,10.40
2022-10-11T06:37:01.247Z,10.70
2022-10-11T06:38:01.239Z,11.33
2022-10-11T06:39:01.492Z,12.00
2022-10-11T06:40:00.940Z,11.03
2022-10-11T06:41:09.037Z,12.00
2022-10-11T06:42:01.908Z,9.73
2022-10-11T06:43:01.231Z,11.47
2022-10-11T06:44:00.951Z,11.97
2022-10-11T06:45:01.231Z,12.00
2022-10-11T06:46:01.316Z,10.87
2022-10-11T06:47:00.994Z,12.03
2022-10-11T06:48:00.979Z,11.10
2022-10-11T06:49:01.243Z,11.10
2022-10-11T06:50:00.921Z,11.33
2022-10-11T06:51:01.014Z,11.77
2022-10-11T06:52:01.250Z,10.37
2022-10-11T06:53:01.218Z,11.07
2022-10-11T06:54:01.791Z,10.80
2022-10-11T06:55:00.928Z,11.37
2022-10-11T06:56:02.873Z,10.80
2022-10-11T06:57:00.969Z,11.33
2022-10-11T06:58:00.963Z,10.13
2022-10-11T06:59:01.386Z,11.23
2022-10-11T07:00:01.038Z,11.90
2022-10-11T07:01:02.872Z,11.17
2022-10-11T07:02:01.240Z,11.13
2022-10-11T07:03:01.260Z,11.47
2022-10-11T07:04:01.138Z,12.70
2022-10-11T07:05:01.250Z,11.40
2022-10-11T07:06:02.763Z,11.53
2022-10-11T07:07:01.238Z,11.20
2022-10-11T07:08:01.005Z,12.87
2022-10-11T07:09:01.367Z,11.10
2022-10-11T07:10:01.259Z,11.00
2022-10-11T07:11:05.191Z,11.70
2022-10-11T07:12:00.924Z,11.57
2022-10-11T07:13:01.236Z,9.70
2022-10-11T07:14:03.665Z,11.90
2022-10-11T07:15:01.470Z,12.00
2022-10-11T07:16:01.786Z,10.93
2022-10-11T07:17:01.005Z,11.57
2022-10-11T07:18:01.036Z,10.27
2022-10-11T07:19:03.451Z,12.33
2022-10-11T07:20:00.971Z,12.13
2022-10-11T07:21:02.827Z,11.67
2022-10-11T07:22:00.983Z,11.20
2022-10-11T07:23:01.324Z,11.00
2022-10-11T07:24:01.736Z,11.40
2022-10-11T07:25:01.272Z,12.30
2022-10-11T07:26:02.216Z,11.00
2022-10-11T07:27:00.950Z,12.20
2022-10-11T07:28:00.933Z,11.33
2022-10-11T07:29:01.389Z,9.20
2022-10-11T07:30:01.293Z,11.87
2022-10-11T07:31:04.355Z,11.37
2022-10-11T07:32:01.312Z,10.93
2022-10-11T07:33:00.929Z,10.43
2022-10-11T07:34:01.219Z,10.73
2022-10-11T07:35:01.239Z,12.33
2022-10-11T07:36:01.549Z,10.97
2022-10-11T07:37:01.318Z,10.10
2022-10-11T07:38:01.115Z,10.63
2022-10-11T07:39:03.365Z,11.43
2022-10-11T07:40:01.245Z,12.20
2022-10-11T07:41:04.624Z,11.60
2022-10-11T07:42:00.947Z,11.60
2022-10-11T07:43:00.933Z,11.50
2022-10-11T07:44:01.363Z,11.53
2022-10-11T07:45:01.884Z,10.53
2022-10-11T07:46:01.230Z,10.60
2022-10-11T07:47:01.321Z,11.13
2022-10-11T07:48:01.314Z,11.07
2022-10-11T07:49:00.953Z,11.37
2022-10-11T07:50:00.940Z,12.60
2022-10-11T07:51:03.195Z,11.17
2022-10-11T07:52:00.943Z,11.87
2022-10-11T07:53:01.365Z,10.83
2022-10-11T07:54:06.974Z,12.07
2022-10-11T07:55:00.937Z,10.50
2022-10-11T07:56:01.010Z,10.33
2022-10-11T07:57:00.934Z,11.20
2022-10-11T07:58:01.237Z,11.63
2022-10-11T07:59:02.041Z,11.27
2022-10-11T08:00:01.276Z,11.17
2022-10-11T08:01:01.050Z,11.03
2022-10-11T08:02:01.298Z,11.50
2022-10-11T08:03:01.523Z,11.00
2022-10-11T08:04:01.057Z,12.00
2022-10-11T08:05:00.950Z,11.53
2022-10-11T08:06:02.200Z,10.20
2022-10-11T08:07:01.249Z,12.50
2022-10-11T08:08:00.942Z,48.30
2022-10-11T08:09:01.475Z,42.43
2022-10-11T08:10:01.645Z,15.00
2022-10-11T08:11:01.330Z,11.57
2022-10-11T08:12:00.921Z,12.87
2022-10-11T08:13:04.444Z,11.93
2022-10-11T08:14:03.111Z,11.00
2022-10-11T08:15:01.029Z,10.43
2022-10-11T08:16:10.056Z,10.73
2022-10-11T08:17:01.266Z,11.47
2022-10-11T08:18:01.265Z,11.17
2022-10-11T08:19:01.063Z,11.20
2022-10-11T08:20:01.224Z,11.47
2022-10-11T08:21:05.423Z,11.00
2022-10-11T08:22:01.156Z,10.77
2022-10-11T08:23:00.965Z,11.33
2022-10-11T08:24:02.755Z,10.10
2022-10-11T08:25:00.975Z,10.37
2022-10-11T08:26:01.581Z,12.33
2022-10-11T08:27:00.932Z,11.60
2022-10-11T08:28:00.940Z,11.90
2022-10-11T08:29:01.367Z,10.13
2022-10-11T08:30:01.319Z,11.03
2022-10-11T08:31:01.915Z,11.37
2022-10-11T08:32:01.225Z,10.90
2022-10-11T08:33:04.978Z,10.43
2022-10-11T08:34:00.976Z,10.93
2022-10-11T08:35:00.970Z,10.80
2022-10-11T08:36:05.287Z,10.57
2022-10-11T08:37:00.923Z,11.87
2022-10-11T08:38:01.228Z,12.20
2022-10-11T08:39:01.275Z,11.30
2022-10-11T08:40:00.993Z,11.43
2022-10-11T08:41:01.673Z,10.07
2022-10-11T08:42:04.681Z,10.73
2022-10-11T08:43:05.062Z,10.43
2022-10-11T08:44:16.065Z,10.17
2022-10-11T08:45:11.771Z,10.90
2022-10-11T08:46:04.118Z,11.27
2022-10-11T08:47:06.626Z,10.37
2022-10-11T08:48:07.622Z,10.80
2022-10-11T08:49:01.744Z,11.33
2022-10-11T08:50:03.670Z,9.83
2022-10-11T08:51:04.619Z,10.77
2022-10-11T08:52:03.666Z,11.30
2022-10-11T08:53:06.860Z,11.50
2022-10-11T08:54:07.813Z,10.70
2022-10-11T08:55:05.088Z,10.93
2022-10-11T08:56:01.629Z,11.63
2022-10-11T08:57:03.154Z,10.80
2022-10-11T08:58:01.838Z,10.67
2022-10-11T08:59:08.089Z,11.33
2022-10-11T09:00:04.972Z,10.80
2022-10-11T09:01:01.998Z,12.10
2022-10-11T09:02:12.240Z,11.23
2022-10-11T09:03:10.214Z,11.57
2022-10-11T09:04:01.299Z,11.20
2022-10-11T09:05:03.904Z,10.10
2022-10-11T09:06:11.053Z,10.57
2022-10-11T09:07:06.288Z,11.97
2022-10-11T09:08:09.724Z,10.70
2022-10-11T09:09:12.757Z,9.80
2022-10-11T09:10:13.406Z,10.83
2022-10-11T09:11:09.214Z,12.30
2022-10-11T09:12:13.476Z,10.70
2022-10-11T09:13:13.556Z,10.80
2022-10-11T09:14:13.715Z,11.40
2022-10-11T09:15:15.949Z,10.90
2022-10-11T09:16:12.937Z,10.43
2022-10-11T09:17:11.019Z,9.57
2022-10-11T09:18:14.525Z,11.83
2022-10-11T09:19:20.162Z,10.13
2022-10-11T09:20:20.545Z,10.20
2022-10-11T09:21:15.907Z,10.50
2022-10-11T09:22:12.158Z,10.23
2022-10-11T09:23:04.406Z,11.07
2022-10-11T09:24:17.794Z,10.90
2022-10-11T09:25:17.452Z,11.27
2022-10-11T09:26:06.108Z,11.50
2022-10-11T09:27:07.431Z,10.97
2022-10-11T09:28:11.532Z,9.87
2022-10-11T09:29:09.853Z,11.60
2022-10-11T09:30:04.654Z,10.57
2022-10-11T09:31:01.287Z,12.30
2022-10-11T09:32:01.660Z,11.87
2022-10-11T09:33:12.423Z,10.43
2022-10-11T09:34:10.329Z,11.03
2022-10-11T09:35:11.199Z,12.17
2022-10-11T09:36:11.548Z,12.03
2022-10-11T09:37:13.297Z,10.83
2022-10-11T09:38:05.181Z,11.27
2022-10-11T09:39:07.026Z,11.90
2022-10-11T09:40:06.366Z,11.00
2022-10-11T09:41:12.706Z,10.80
2022-10-11T09:42:02.994Z,10.77
2022-10-11T09:43:01.260Z,12.10
2022-10-11T09:44:01.455Z,10.67
2022-10-11T09:45:01.824Z,12.27
2022-10-11T09:46:01.266Z,10.23
2022-10-11T09:47:01.001Z,10.57
2022-10-11T09:48:04.492Z,10.13
2022-10-11T09:49:03.766Z,10.40
2022-10-11T09:50:03.857Z,11.83
2022-10-11T09:51:05.900Z,11.00
2022-10-11T09:52:03.489Z,12.00
2022-10-11T09:53:03.708Z,10.77
2022-10-11T09:54:04.020Z,11.70
2022-10-11T09:55:02.663Z,10.57
2022-10-11T09:56:03.948Z,10.93
2022-10-11T09:57:01.319Z,12.30
2022-10-11T09:58:02.376Z,12.63
2022-10-11T09:59:20.403Z,11.63
2022-10-11T10:00:05.548Z,11.93
2022-10-11T10:01:07.861Z,11.33
2022-10-11T10:02:19.419Z,12.20
2022-10-11T10:03:03.272Z,11.33
2022-10-11T10:04:08.743Z,11.73
2022-10-11T10:05:12.810Z,12.83
2022-10-11T10:06:08.338Z,12.00
2022-10-11T10:07:11.097Z,11.03
2022-10-11T10:08:05.408Z,11.00
2022-10-11T10:09:20.412Z,10.77
2022-10-11T10:10:20.398Z,12.57
2022-10-11T10:11:03.856Z,11.10
2022-10-11T10:12:11.212Z,11.23
2022-10-11T10:13:03.406Z,11.33
2022-10-11T10:14:01.084Z,10.63
2022-10-11T10:15:06.117Z,11.37
2022-10-11T10:16:01.111Z,13.17
2022-10-11T10:17:03.819Z,11.33
2022-10-11T10:18:03.112Z,11.47
2022-10-11T10:19:03.950Z,11.13
2022-10-11T10:20:01.807Z,10.80
2022-10-11T10:21:03.172Z,11.70
2022-10-11T10:22:01.524Z,10.13
2022-10-11T10:23:08.838Z,10.77
2022-10-11T10:24:06.678Z,11.17
2022-10-11T10:25:04.656Z,11.23
2022-10-11T10:26:12.201Z,11.03
2022-10-11T10:27:06.870Z,11.60
2022-10-11T10:28:02.994Z,11.00
2022-10-11T10:29:13.451Z,11.87
2022-10-11T10:30:12.846Z,12.87
2022-10-11T10:31:00.934Z,12.13
2022-10-11T10:32:14.968Z,14.30
2022-10-11T10:33:05.383Z,12.93
2022-10-11T10:34:02.722Z,11.77
2022-10-11T10:35:07.943Z,10.93
2022-10-11T10:36:11.121Z,10.70
2022-10-11T10:37:05.744Z,11.77
2022-10-11T10:38:14.724Z,10.77
2022-10-11T10:39:09.420Z,11.30
2022-10-11T10:40:08.245Z,11.10
2022-10-11T10:41:03.707Z,11.63
2022-10-11T10:42:04.267Z,10.97
2022-10-11T10:43:01.362Z,10.97
2022-10-11T10:44:03.165Z,12.37
2022-10-11T10:45:02.244Z,10.00
2022-10-11T10:46:18.167Z,10.90
2022-10-11T10:47:09.158Z,11.37
2022-10-11T10:48:15.436Z,11.00
2022-10-11T10:49:52.576Z,11.90
2022-10-11T10:50:06.533Z,9.03
2022-10-11T10:51:12.322Z,11.23
2022-10-11T10:52:20.418Z,10.77
2022-10-11T10:53:14.174Z,11.33
2022-10-11T10:54:11.635Z,10.67
2022-10-11T10:55:13.275Z,12.23
2022-10-11T10:56:07.423Z,10.87
2022-10-11T10:57:03.700Z,11.67
2022-10-11T10:58:09.402Z,9.50
2022-10-11T10:59:15.055Z,10.80
2022-10-11T11:00:11.712Z,12.27
2022-10-11T11:01:11.420Z,11.33
2022-10-11T11:02:28.172Z,11.03
2022-10-11T11:03:02.941Z,11.40
2022-10-11T11:04:09.454Z,10.80
2022-10-11T11:05:12.643Z,11.53
2022-10-11T11:06:06.348Z,11.00
2022-10-11T11:07:12.302Z,11.50
2022-10-11T11:08:12.029Z,10.97
2022-10-11T11:09:10.766Z,12.20
2022-10-11T11:10:05.409Z,11.30
2022-10-11T11:11:11.187Z,12.37
2022-10-11T11:12:13.211Z,12.07
2022-10-11T11:13:16.937Z,10.60
2022-10-11T11:14:12.894Z,11.47
2022-10-11T11:15:07.951Z,11.57
2022-10-11T11:16:10.048Z,9.90
2022-10-11T11:17:11.480Z,12.50
2022-10-11T11:18:16.003Z,11.07
2022-10-11T11:19:10.912Z,10.63
2022-10-11T11:20:16.374Z,10.37
2022-10-11T11:21:12.351Z,11.13
2022-10-11T11:22:09.857Z,10.97
2022-10-11T11:23:14.061Z,10.53
2022-10-11T11:24:12.852Z,12.17
2022-10-11T11:25:13.869Z,11.80
2022-10-11T11:26:11.598Z,11.30
2022-10-11T11:27:08.405Z,10.50
2022-10-11T11:28:15.651Z,12.40
2022-10-11T11:29:13.864Z,11.23
2022-10-11T11:30:05.657Z,11.90
2022-10-11T11:31:11.231Z,13.03
2022-10-11T11:32:13.502Z,10.17
2022-10-11T11:33:09.543Z,11.80
2022-10-11T11:34:10.755Z,11.47
2022-10-11T11:35:08.176Z,10.97
2022-10-11T11:36:07.211Z,11.90
2022-10-11T11:37:04.668Z,12.43
2022-10-11T11:38:09.344Z,13.40
2022-10-11T11:39:04.305Z,13.77
2022-10-11T11:40:07.355Z,12.87
2022-10-11T11:41:07.838Z,10.90
2022-10-11T11:42:06.671Z,14.27
2022-10-11T11:43:03.694Z,11.97
2022-10-11T11:44:05.217Z,12.03
2022-10-11T11:45:11.359Z,13.10
2022-10-11T11:46:07.945Z,13.23
2022-10-11T11:47:05.701Z,12.87
2022-10-11T11:48:05.598Z,12.57
2022-10-11T11:49:12.958Z,12.83
2022-10-11T11:50:12.928Z,10.57
2022-10-11T11:51:06.209Z,12.37
2022-10-11T11:52:03.571Z,12.57
2022-10-11T11:53:05.484Z,12.10
2022-10-11T11:54:11.697Z,12.97
2022-10-11T11:55:08.567Z,12.23
2022-10-11T11:56:07.503Z,12.50
2022-10-11T11:57:10.890Z,11.90
2022-10-11T11:58:15.316Z,12.30
2022-10-11T11:59:09.388Z,12.60
2022-10-11T12:00:05.386Z,14.43
2022-10-11T12:01:11.562Z,12.50
2022-10-11T12:02:21.446Z,15.23
2022-10-11T12:03:04.522Z,16.30
2022-10-11T12:04:06.493Z,14.30
2022-10-11T12:05:01.585Z,15.53
2022-10-11T12:06:20.411Z,12.07
2022-10-11T12:07:15.928Z,13.20
2022-10-11T12:08:05.607Z,12.73
2022-10-11T12:09:06.990Z,13.03
2022-10-11T12:10:16.253Z,15.03
2022-10-11T12:11:01.723Z,12.53
2022-10-11T12:12:05.099Z,14.67
2022-10-11T12:13:07.356Z,14.73
2022-10-11T12:14:10.894Z,16.70
2022-10-11T12:15:04.979Z,14.47
2022-10-11T12:16:09.398Z,17.03
2022-10-11T12:17:11.713Z,17.43
2022-10-11T12:18:11.917Z,18.00
2022-10-11T12:19:02.921Z,17.77
2022-10-11T12:20:13.202Z,21.80
2022-10-11T12:21:05.113Z,22.50
2022-10-11T12:22:20.518Z,23.27
2022-10-11T12:23:04.463Z,24.33
2022-10-11T12:24:10.412Z,22.87
2022-10-11T12:25:20.451Z,23.73
2022-10-11T12:26:20.410Z,21.90
2022-10-11T12:27:20.408Z,22.17
2022-10-11T12:28:11.750Z,20.93
2022-10-11T12:29:15.765Z,19.23
2022-10-11T12:30:01.284Z,19.33
2022-10-11T12:31:04.982Z,19.53
2022-10-11T12:32:20.423Z,18.77
2022-10-11T12:33:12.831Z,20.50
2022-10-11T12:34:19.883Z,18.83
2022-10-11T12:35:20.415Z,18.47
2022-10-11T12:36:07.303Z,16.63
2022-10-11T12:37:20.462Z,16.80
2022-10-11T12:38:12.666Z,15.50
2022-10-11T12:39:20.431Z,18.10
2022-10-11T12:40:01.294Z,18.30
2022-10-11T12:41:20.425Z,17.10
2022-10-11T12:42:07.080Z,16.77
2022-10-11T12:43:20.247Z,14.37
2022-10-11T12:44:19.476Z,16.87
2022-10-11T12:45:20.430Z,15.20
2022-10-11T12:46:20.423Z,14.57
2022-10-11T12:47:20.407Z,13.90
2022-10-11T12:48:15.404Z,15.57
2022-10-11T12:49:17.479Z,15.93
2022-10-11T12:50:15.111Z,16.53
2022-10-11T12:51:20.424Z,15.70
2022-10-11T12:52:03.535Z,13.40
2022-10-11T12:53:11.220Z,13.23
2022-10-11T12:54:27.297Z,12.80